Time;durP1;ratioP1;P1;durP2;ratioP2;P2;SDS_P1;SDS_P2;PMS_P1;PMS_P2;Temp;Humidity;BMP_temperature;BMP_pressure;BME280_temperature;BME280_humidity;BME280_pressure;Samples;Min_cycle;Max_cycle;Signal;HPM_P1;HPM_P2
2023/05/25 00:02:13;;;;;;;9.48;5.88;;;9.20;99.90;;;;;;5043042;28;20036;-52
2023/05/25 00:04:39;;;;;;;10.45;7.38;;;9.20;99.90;;;;;;5041253;28;20049;-54
2023/05/25 00:07:05;;;;;;;11.57;6.97;;;9.10;99.90;;;;;;5043816;28;20060;-52
2023/05/25 00:09:31;;;;;;;12.82;7.72;;;9.10;99.90;;;;;;5044449;28;20098;-53
2023/05/25 00:11:58;;;;;;;11.23;7.68;;;9.10;99.90;;;;;;5045580;28;20024;-56
2023/05/25 00:14:24;;;;;;;11.88;7.53;;;9.10;99.90;;;;;;5044676;28;20503;-54
2023/05/25 00:16:50;;;;;;;17.17;8.10;;;9.10;99.90;;;;;;5045336;28;20029;-54
2023/05/25 00:19:17;;;;;;;10.50;7.75;;;9.10;99.90;;;;;;5042992;28;20079;-53
2023/05/25 00:21:47;;;;;;;11.80;7.43;;;9.10;99.90;;;;;;5043048;28;20217;-56
2023/05/25 00:24:13;;;;;;;10.65;6.57;;;9.00;99.90;;;;;;5026054;28;20024;-56
2023/05/25 00:26:38;;;;;;;10.52;7.15;;;9.00;99.90;;;;;;5044530;28;20025;-57
2023/05/25 00:29:04;;;;;;;9.60;7.18;;;9.00;99.90;;;;;;5043913;28;20625;-56
2023/05/25 00:31:32;;;;;;;12.63;7.43;;;9.00;99.90;;;;;;5043136;28;20041;-51
2023/05/25 00:33:59;;;;;;;14.18;7.55;;;8.90;99.90;;;;;;5044061;28;20016;-55
2023/05/25 00:36:24;;;;;;;14.15;7.78;;;8.90;99.90;;;;;;5026579;28;20021;-51
2023/05/25 00:38:50;;;;;;;11.80;6.65;;;8.90;99.90;;;;;;5027904;28;20032;-52
2023/05/25 00:41:17;;;;;;;11.27;6.25;;;8.90;99.90;;;;;;5044696;28;20628;-53
2023/05/25 00:43:45;;;;;;;11.82;6.68;;;8.90;99.90;;;;;;5027280;28;20402;-52
2023/05/25 00:46:15;;;;;;;10.98;6.53;;;8.80;99.90;;;;;;5044566;28;20082;-54
2023/05/25 00:48:42;;;;;;;10.73;7.10;;;8.80;99.90;;;;;;5043429;28;20059;-51
2023/05/25 00:51:09;;;;;;;9.52;6.07;;;8.80;99.90;;;;;;5044311;28;20087;-53
2023/05/25 00:53:36;;;;;;;12.40;6.13;;;8.70;99.90;;;;;;5043391;28;20013;-52
2023/05/25 00:56:15;;;;;;;13.82;7.15;;;8.70;99.90;;;;;;5026850;28;20029;-54
2023/05/25 00:58:43;;;;;;;11.73;6.20;;;8.70;99.90;;;;;;5036231;28;20028;-49
2023/05/25 01:01:10;;;;;;;10.65;6.30;;;8.60;99.90;;;;;;5039657;28;20037;-54
2023/05/25 01:03:38;;;;;;;13.27;6.70;;;8.60;99.90;;;;;;5040995;28;20735;-51
2023/05/25 01:06:08;;;;;;;14.63;7.65;;;8.60;99.90;;;;;;5043085;28;20469;-53
2023/05/25 01:08:35;;;;;;;10.18;6.65;;;8.60;99.90;;;;;;5043486;28;20106;-55
2023/05/25 01:11:03;;;;;;;15.00;6.28;;;8.50;99.90;;;;;;5044299;28;20761;-53
2023/05/25 01:13:30;;;;;;;9.23;5.65;;;8.50;99.90;;;;;;5043488;28;20053;-56
2023/05/25 01:15:56;;;;;;;9.57;6.50;;;8.50;99.90;;;;;;5043220;28;20025;-51
2023/05/25 01:18:22;;;;;;;13.48;6.60;;;8.60;99.90;;;;;;5043889;28;20041;-53
2023/05/25 01:21:13;;;;;;;8.88;6.50;;;8.50;99.90;;;;;;5042356;28;20028;-51
2023/05/25 01:23:48;;;;;;;11.95;6.97;;;8.50;99.90;;;;;;5043460;28;20505;-50
2023/05/25 01:26:16;;;;;;;11.50;6.63;;;8.50;99.90;;;;;;5043953;28;20032;-51
2023/05/25 01:28:49;;;;;;;10.38;6.10;;;8.40;99.90;;;;;;5042952;28;20033;-50
2023/05/25 01:31:15;;;;;;;11.27;7.55;;;8.40;99.90;;;;;;5042425;28;20040;-54
2023/05/25 01:33:43;;;;;;;16.88;8.02;;;8.40;99.90;;;;;;5043649;28;20301;-51
2023/05/25 01:36:09;;;;;;;14.82;6.60;;;8.40;99.90;;;;;;5042895;28;20513;-52
2023/05/25 01:38:35;;;;;;;10.02;7.05;;;8.40;99.90;;;;;;5043680;28;20017;-52
2023/05/25 01:41:01;;;;;;;13.85;7.30;;;8.40;99.90;;;;;;5042833;28;20083;-50
2023/05/25 01:43:26;;;;;;;13.48;7.53;;;8.40;99.90;;;;;;5044699;28;20170;-51
2023/05/25 01:45:59;;;;;;;10.73;7.40;;;8.30;99.90;;;;;;5043493;28;20033;-52
2023/05/25 01:48:34;;;;;;;12.30;6.90;;;8.30;99.90;;;;;;5043117;28;20028;-53
2023/05/25 01:51:09;;;;;;;10.30;7.78;;;8.30;99.90;;;;;;5042252;28;20033;-53
2023/05/25 01:53:39;;;;;;;12.30;7.32;;;8.30;99.90;;;;;;5043623;28;20535;-54
2023/05/25 01:56:07;;;;;;;13.18;8.05;;;8.30;99.90;;;;;;5044092;28;20025;-52
2023/05/25 01:58:39;;;;;;;10.43;7.22;;;8.30;99.90;;;;;;5042941;28;20044;-50
2023/05/25 02:01:10;;;;;;;13.35;7.47;;;8.30;99.90;;;;;;5043106;28;20033;-53
2023/05/25 02:03:39;;;;;;;16.63;8.68;;;8.30;99.90;;;;;;5043457;28;20021;-54
2023/05/25 02:06:06;;;;;;;17.08;8.57;;;8.30;99.90;;;;;;5044248;28;20025;-50
2023/05/25 02:08:31;;;;;;;10.18;7.53;;;8.30;99.90;;;;;;5042540;28;20033;-51
2023/05/25 02:10:57;;;;;;;12.82;7.68;;;8.30;99.90;;;;;;5043487;28;20025;-53
2023/05/25 02:13:22;;;;;;;15.73;7.93;;;8.20;99.90;;;;;;5042629;28;20021;-51
2023/05/25 02:15:48;;;;;;;13.98;7.28;;;8.20;99.90;;;;;;5044482;28;20522;-49
2023/05/25 02:18:16;;;;;;;11.75;7.18;;;8.20;99.90;;;;;;5047840;28;20029;-49
2023/05/25 02:20:42;;;;;;;12.57;7.50;;;8.20;99.90;;;;;;5047090;28;20040;-48
2023/05/25 02:23:08;;;;;;;13.88;8.70;;;8.20;99.90;;;;;;5047025;28;20032;-48
2023/05/25 02:25:33;;;;;;;16.35;8.77;;;8.20;99.90;;;;;;5046817;28;20035;-49
2023/05/25 02:27:59;;;;;;;15.20;9.00;;;8.20;99.90;;;;;;5047317;28;20548;-48
2023/05/25 02:30:25;;;;;;;16.40;9.60;;;8.20;99.90;;;;;;5046316;28;20559;-51
2023/05/25 02:32:50;;;;;;;13.30;8.45;;;8.10;99.90;;;;;;5029335;28;20028;-47
2023/05/25 02:35:16;;;;;;;12.45;9.02;;;8.10;99.90;;;;;;5043359;28;20134;-50
2023/05/25 02:37:42;;;;;;;14.38;9.00;;;8.10;99.90;;;;;;5045426;28;20069;-50
2023/05/25 02:40:09;;;;;;;13.48;9.25;;;8.10;99.90;;;;;;5047012;28;20063;-52
2023/05/25 02:42:35;;;;;;;12.32;8.95;;;8.10;99.90;;;;;;5046670;28;20586;-50
2023/05/25 02:45:00;;;;;;;19.27;9.98;;;8.10;99.90;;;;;;5046308;28;20104;-47
2023/05/25 02:47:26;;;;;;;15.15;9.02;;;8.10;99.90;;;;;;5030544;28;20078;-52
2023/05/25 02:49:51;;;;;;;10.32;7.70;;;8.10;99.90;;;;;;5045770;28;20025;-49
2023/05/25 02:52:17;;;;;;;15.30;9.20;;;8.10;99.90;;;;;;5046521;28;20040;-52
2023/05/25 02:54:42;;;;;;;11.68;8.82;;;8.10;99.90;;;;;;5045818;28;20033;-51
2023/05/25 02:57:09;;;;;;;17.25;9.63;;;8.00;99.90;;;;;;5046832;28;20017;-49
2023/05/25 02:59:34;;;;;;;15.05;8.90;;;8.10;99.90;;;;;;5046037;28;20489;-50
2023/05/25 03:02:00;;;;;;;13.50;8.70;;;8.10;99.90;;;;;;5028202;28;20064;-48
2023/05/25 03:04:26;;;;;;;21.15;10.57;;;8.10;99.90;;;;;;5030642;28;20047;-49
2023/05/25 03:06:51;;;;;;;17.83;8.23;;;8.20;99.90;;;;;;5045049;28;20124;-48
2023/05/25 03:09:17;;;;;;;16.42;9.15;;;8.20;99.90;;;;;;5046346;28;20017;-48
2023/05/25 03:11:43;;;;;;;18.83;9.52;;;8.30;99.90;;;;;;5045722;28;20017;-48
2023/05/25 03:14:09;;;;;;;15.43;9.38;;;8.30;99.90;;;;;;5046402;28;20395;-53
2023/05/25 03:16:37;;;;;;;20.20;9.88;;;8.30;99.90;;;;;;5045508;28;20107;-52
2023/05/25 03:19:04;;;;;;;18.05;9.27;;;8.40;99.90;;;;;;5045743;28;20086;-51
2023/05/25 03:21:31;;;;;;;21.00;9.98;;;8.40;99.90;;;;;;5045003;28;20025;-51
2023/05/25 03:23:56;;;;;;;14.95;9.82;;;8.40;99.90;;;;;;5045241;28;20021;-50
2023/05/25 03:26:24;;;;;;;14.70;9.43;;;8.50;99.90;;;;;;5044749;28;20256;-51
2023/05/25 03:28:50;;;;;;;13.52;9.40;;;8.50;99.90;;;;;;5042846;28;20436;-51
2023/05/25 03:31:16;;;;;;;18.00;9.13;;;8.50;99.90;;;;;;5044295;28;20029;-52
2023/05/25 03:33:41;;;;;;;20.35;9.35;;;8.50;99.90;;;;;;5028501;28;20387;-53
2023/05/25 03:36:08;;;;;;;14.82;9.85;;;8.50;99.90;;;;;;5045238;28;20403;-52
2023/05/25 03:38:35;;;;;;;18.98;9.48;;;8.50;99.90;;;;;;5045344;28;20025;-49
2023/05/25 03:41:00;;;;;;;21.63;9.70;;;8.50;99.90;;;;;;5044145;28;20483;-49
2023/05/25 03:43:26;;;;;;;18.50;9.52;;;8.50;99.90;;;;;;5044737;28;20045;-50
2023/05/25 03:45:51;;;;;;;16.42;10.25;;;8.50;99.90;;;;;;5044073;28;20082;-52
2023/05/25 03:48:17;;;;;;;16.95;8.65;;;8.50;99.90;;;;;;5043699;28;20120;-50
2023/05/25 03:50:42;;;;;;;16.33;9.65;;;8.50;99.90;;;;;;5044861;28;20111;-55
2023/05/25 03:53:08;;;;;;;20.67;10.27;;;8.50;99.90;;;;;;5044152;28;20021;-48
2023/05/25 03:55:34;;;;;;;20.50;10.70;;;8.60;99.90;;;;;;5044558;28;20487;-60
2023/05/25 03:57:59;;;;;;;17.77;8.70;;;8.60;99.90;;;;;;5027083;28;20029;-53
2023/05/25 04:00:25;;;;;;;20.90;10.00;;;8.60;99.90;;;;;;5043745;28;20029;-55
2023/05/25 04:02:50;;;;;;;16.83;8.40;;;8.60;99.90;;;;;;5044228;28;20507;-55
2023/05/25 04:05:16;;;;;;;14.85;9.15;;;8.60;99.90;;;;;;5044366;28;20402;-55
2023/05/25 04:07:42;;;;;;;13.60;8.35;;;8.60;99.90;;;;;;5044174;28;20069;-52
2023/05/25 04:10:08;;;;;;;18.42;9.32;;;8.60;99.90;;;;;;5026911;28;20218;-52
2023/05/25 04:12:33;;;;;;;21.88;9.85;;;8.60;99.90;;;;;;5044581;28;20032;-52
2023/05/25 04:14:59;;;;;;;16.27;8.52;;;8.60;99.90;;;;;;5042939;28;20096;-57
2023/05/25 04:17:25;;;;;;;13.95;8.60;;;8.60;99.90;;;;;;5044202;28;20869;-56
2023/05/25 04:19:51;;;;;;;13.18;8.23;;;8.70;99.90;;;;;;5042700;28;20025;-56
2023/05/25 04:22:17;;;;;;;12.95;7.45;;;8.70;99.90;;;;;;5043394;28;20479;-55
2023/05/25 04:24:43;;;;;;;14.25;7.07;;;8.70;99.90;;;;;;5026893;28;20021;-54
2023/05/25 04:27:09;;;;;;;16.75;7.75;;;8.70;99.90;;;;;;5041231;28;20114;-58
2023/05/25 04:29:36;;;;;;;16.05;7.50;;;8.70;99.90;;;;;;5042938;28;20100;-56
2023/05/25 04:32:01;;;;;;;15.98;7.82;;;8.80;99.90;;;;;;5043147;28;20029;-54
2023/05/25 04:34:28;;;;;;;14.20;7.28;;;8.80;99.90;;;;;;5025106;28;20032;-53
2023/05/25 04:36:55;;;;;;;14.68;7.97;;;8.90;99.90;;;;;;5043611;28;20020;-53
2023/05/25 04:39:21;;;;;;;11.85;7.13;;;8.90;99.90;;;;;;5042779;28;20028;-56
2023/05/25 04:41:47;;;;;;;13.50;6.22;;;8.90;99.90;;;;;;5043785;28;20037;-54
2023/05/25 04:44:13;;;;;;;15.70;7.55;;;9.00;99.90;;;;;;5058070;23;20044;-47
2023/05/25 04:46:39;;;;;;;16.98;6.75;;;9.00;99.90;;;;;;5040440;28;20204;-47
2023/05/25 04:49:07;;;;;;;13.23;6.75;;;9.00;99.90;;;;;;5043638;28;20646;-48
2023/05/25 04:51:32;;;;;;;12.23;6.18;;;9.00;99.90;;;;;;5042542;28;20020;-48
2023/05/25 04:53:58;;;;;;;15.20;6.65;;;9.10;99.90;;;;;;5044353;28;20474;-49
2023/05/25 04:56:25;;;;;;;11.52;6.40;;;9.10;99.90;;;;;;5028196;28;20908;-51
2023/05/25 04:58:51;;;;;;;17.17;6.63;;;9.20;99.90;;;;;;5043469;28;20025;-51
2023/05/25 05:01:18;;;;;;;16.02;6.80;;;9.30;99.90;;;;;;5037509;28;20128;-47
2023/05/25 05:03:44;;;;;;;12.32;6.13;;;9.30;99.90;;;;;;5044395;28;20099;-48
2023/05/25 05:06:10;;;;;;;9.90;6.85;;;9.40;99.90;;;;;;5041797;28;20036;-48
2023/05/25 05:08:35;;;;;;;12.98;6.35;;;9.50;99.90;;;;;;5043756;28;20051;-47
2023/05/25 05:11:01;;;;;;;12.35;6.68;;;9.50;99.90;;;;;;5039295;28;20073;-47
2023/05/25 05:13:26;;;;;;;9.43;6.32;;;9.50;99.90;;;;;;5044002;28;20029;-48
2023/05/25 05:15:52;;;;;;;13.50;5.43;;;9.50;99.90;;;;;;5040631;28;20462;-47
2023/05/25 05:18:19;;;;;;;9.82;5.25;;;9.60;99.90;;;;;;5027024;28;20035;-47
2023/05/25 05:20:45;;;;;;;13.60;5.85;;;9.60;99.90;;;;;;5025905;28;20548;-48
2023/05/25 05:23:10;;;;;;;12.48;5.18;;;9.60;99.90;;;;;;5041604;28;20033;-47
2023/05/25 05:25:36;;;;;;;10.48;5.57;;;9.70;99.90;;;;;;5028696;28;20380;-47
2023/05/25 05:28:02;;;;;;;8.52;4.95;;;9.70;99.90;;;;;;5042649;28;20033;-47
2023/05/25 05:30:28;;;;;;;11.52;6.38;;;9.80;99.90;;;;;;5041581;28;20112;-46
2023/05/25 05:32:54;;;;;;;19.27;5.85;;;9.80;99.90;;;;;;5020880;28;20446;-47
2023/05/25 05:35:20;;;;;;;18.98;7.03;;;9.90;99.90;;;;;;5035606;28;20026;-48
2023/05/25 05:37:47;;;;;;;16.23;5.97;;;9.90;99.90;;;;;;5042452;28;20083;-47
2023/05/25 05:40:12;;;;;;;13.48;5.85;;;10.00;99.90;;;;;;5040354;28;20164;-48
2023/05/25 05:42:38;;;;;;;8.88;5.22;;;10.00;99.90;;;;;;5043731;28;20033;-46
2023/05/25 05:45:04;;;;;;;14.95;5.50;;;10.10;99.90;;;;;;5027363;28;20535;-48
2023/05/25 05:47:30;;;;;;;13.45;5.47;;;10.20;99.90;;;;;;5043474;28;20025;-49
2023/05/25 05:49:55;;;;;;;12.25;4.93;;;10.30;99.90;;;;;;5043223;28;20265;-47
2023/05/25 05:52:21;;;;;;;12.82;5.88;;;10.40;99.90;;;;;;5047647;28;20064;-47
2023/05/25 05:54:47;;;;;;;14.05;5.80;;;10.50;99.90;;;;;;5047111;28;20227;-47
2023/05/25 05:57:12;;;;;;;15.35;6.45;;;10.60;99.90;;;;;;5047369;28;20464;-48
2023/05/25 05:59:38;;;;;;;8.55;4.80;;;10.80;99.90;;;;;;5047495;28;20389;-48
2023/05/25 06:02:05;;;;;;;10.52;5.22;;;10.80;99.90;;;;;;5047128;28;20433;-47
2023/05/25 06:04:30;;;;;;;11.65;5.88;;;11.00;99.90;;;;;;5047352;28;20513;-48
2023/05/25 06:06:56;;;;;;;12.30;4.68;;;11.10;99.90;;;;;;5046772;28;20049;-47
2023/05/25 06:09:21;;;;;;;11.30;4.68;;;11.20;99.90;;;;;;5047222;28;20345;-46
2023/05/25 06:11:47;;;;;;;14.07;4.75;;;11.30;99.90;;;;;;5044845;28;20615;-48
2023/05/25 06:14:12;;;;;;;9.73;4.38;;;11.20;99.90;;;;;;5046832;28;20025;-48
2023/05/25 06:16:38;;;;;;;15.48;4.68;;;11.40;99.90;;;;;;5045230;28;20029;-48
2023/05/25 06:19:03;;;;;;;14.48;4.95;;;11.50;99.90;;;;;;5045771;28;20439;-48
2023/05/25 06:21:29;;;;;;;16.20;3.97;;;11.70;99.90;;;;;;5045847;28;20100;-47
2023/05/25 06:23:58;;;;;;;14.85;4.90;;;11.90;99.90;;;;;;5042353;28;20025;-47
2023/05/25 06:26:23;;;;;;;14.95;3.75;;;12.10;99.90;;;;;;5046380;28;20459;-51
2023/05/25 06:28:49;;;;;;;16.13;5.35;;;12.20;99.90;;;;;;5042798;28;20029;-48
2023/05/25 06:31:15;;;;;;;14.77;4.85;;;12.40;99.90;;;;;;5046105;28;20033;-48
2023/05/25 06:33:41;;;;;;;12.35;3.85;;;12.60;99.90;;;;;;5046885;28;20359;-49
2023/05/25 06:36:07;;;;;;;20.48;5.18;;;12.60;99.90;;;;;;5046971;28;20123;-50
2023/05/25 06:38:33;;;;;;;12.02;5.45;;;12.50;99.90;;;;;;5043899;28;20022;-48
2023/05/25 06:41:02;;;;;;;18.42;4.32;;;12.50;99.90;;;;;;5045477;28;20430;-47
2023/05/25 06:43:28;;;;;;;14.85;4.40;;;12.60;99.90;;;;;;5046671;28;20115;-48
2023/05/25 06:45:53;;;;;;;13.13;4.47;;;12.50;99.90;;;;;;5046587;28;20021;-48
2023/05/25 06:48:19;;;;;;;20.45;5.38;;;12.60;99.90;;;;;;5046606;28;20029;-50
2023/05/25 06:50:45;;;;;;;18.23;4.35;;;12.70;99.90;;;;;;5045579;28;20518;-49
2023/05/25 06:53:11;;;;;;;14.50;4.85;;;12.50;99.90;;;;;;5027984;28;20051;-48
2023/05/25 06:55:37;;;;;;;14.65;4.55;;;12.50;99.90;;;;;;5046547;28;20032;-50
2023/05/25 06:58:02;;;;;;;15.27;4.18;;;12.50;99.90;;;;;;5045108;28;20025;-46
2023/05/25 07:00:28;;;;;;;15.93;4.45;;;12.50;99.90;;;;;;5045157;28;20033;-49
2023/05/25 07:02:54;;;;;;;16.70;4.53;;;12.50;99.90;;;;;;5046323;28;20054;-48
2023/05/25 07:05:19;;;;;;;14.15;4.13;;;12.50;99.90;;;;;;5044962;28;20056;-47
2023/05/25 07:07:45;;;;;;;18.08;3.95;;;12.60;99.90;;;;;;5046023;28;20025;-48
2023/05/25 07:10:11;;;;;;;12.30;3.83;;;12.90;99.90;;;;;;5043410;28;20119;-50
2023/05/25 07:12:36;;;;;;;12.77;4.43;;;13.20;99.90;;;;;;5046600;28;20158;-48
2023/05/25 07:15:02;;;;;;;13.85;4.43;;;13.40;99.90;;;;;;5042790;28;20033;-49
2023/05/25 07:17:27;;;;;;;13.48;3.85;;;13.80;99.90;;;;;;5046197;28;20028;-50
2023/05/25 07:19:53;;;;;;;15.13;4.15;;;14.00;99.90;;;;;;5045852;28;20021;-51
2023/05/25 07:22:19;;;;;;;18.15;4.78;;;14.20;99.90;;;;;;5043781;28;20028;-52
2023/05/25 07:24:45;;;;;;;17.08;4.57;;;14.50;99.90;;;;;;5042678;28;20033;-47
2023/05/25 07:27:11;;;;;;;17.48;4.38;;;14.50;99.90;;;;;;5045539;28;20051;-48
2023/05/25 07:29:37;;;;;;;19.15;3.97;;;14.80;99.90;;;;;;5042775;28;20030;-50
2023/05/25 07:32:03;;;;;;;12.32;4.43;;;15.10;99.90;;;;;;5023313;28;20056;-47
2023/05/25 07:34:30;;;;;;;13.32;4.47;;;15.10;99.90;;;;;;5045372;28;20538;-47
2023/05/25 07:36:56;;;;;;;16.38;4.05;;;15.20;99.90;;;;;;5043146;28;20095;-47
2023/05/25 07:39:21;;;;;;;9.93;3.40;;;15.30;99.90;;;;;;5045435;28;20037;-48
2023/05/25 07:41:47;;;;;;;17.73;4.15;;;15.50;99.90;;;;;;5042676;28;20043;-47
2023/05/25 07:44:13;;;;;;;15.50;4.10;;;15.70;99.90;;;;;;5044925;28;20649;-49
2023/05/25 07:46:38;;;;;;;11.02;3.72;;;15.90;99.90;;;;;;5041611;28;20466;-50
2023/05/25 07:49:05;;;;;;;13.85;3.67;;;15.90;99.90;;;;;;5044999;28;20025;-48
2023/05/25 07:51:31;;;;;;;13.85;4.20;;;16.00;99.90;;;;;;5041551;28;20044;-47
2023/05/25 07:53:57;;;;;;;13.65;4.57;;;16.00;99.90;;;;;;5045032;28;20021;-47
2023/05/25 07:56:23;;;;;;;16.33;4.70;;;15.70;99.90;;;;;;5041498;28;20033;-48
2023/05/25 07:58:49;;;;;;;16.95;4.82;;;15.80;99.90;;;;;;5044109;28;20110;-48
2023/05/25 08:01:15;;;;;;;18.65;5.45;;;15.80;99.90;;;;;;5040627;28;20079;-47
2023/05/25 08:03:41;;;;;;;12.57;3.83;;;16.00;99.90;;;;;;5045488;28;20031;-50
2023/05/25 08:06:06;;;;;;;10.07;3.88;;;16.00;99.90;;;;;;5044751;28;20041;-48
2023/05/25 08:08:32;;;;;;;11.80;3.70;;;16.30;99.90;;;;;;5044606;28;20036;-48
2023/05/25 08:10:57;;;;;;;17.10;4.30;;;16.50;99.90;;;;;;5044582;28;20021;-49
2023/05/25 08:13:23;;;;;;;12.68;3.92;;;16.70;99.90;;;;;;5044623;28;20390;-47
2023/05/25 08:15:49;;;;;;;10.10;3.88;;;17.00;99.90;;;;;;5029620;28;20021;-47
2023/05/25 08:18:18;;;;;;;14.90;4.75;;;17.20;99.90;;;;;;5044811;28;20071;-49
2023/05/25 08:20:43;;;;;;;16.05;4.88;;;17.30;99.90;;;;;;5040763;28;20155;-52
2023/05/25 08:23:09;;;;;;;11.95;3.53;;;17.00;99.90;;;;;;5044529;28;20108;-48
2023/05/25 08:25:35;;;;;;;13.85;4.45;;;17.00;99.90;;;;;;5041622;28;20044;-47
2023/05/25 08:28:00;;;;;;;13.35;4.38;;;17.00;99.90;;;;;;5042827;28;20121;-51
2023/05/25 08:30:26;;;;;;;14.38;3.78;;;17.10;99.90;;;;;;5041608;28;20512;-47
2023/05/25 08:32:51;;;;;;;10.95;3.72;;;16.90;99.90;;;;;;5044464;28;20017;-48
2023/05/25 08:35:17;;;;;;;12.52;4.10;;;17.10;99.90;;;;;;5043851;28;20029;-48
2023/05/25 08:37:43;;;;;;;13.70;4.15;;;17.30;99.90;;;;;;5043701;28;20021;-49
2023/05/25 08:40:15;;;;;;;11.32;4.07;;;17.40;98.90;;;;;;5039950;28;20056;-50
2023/05/25 08:42:42;;;;;;;13.02;5.03;;;17.40;98.90;;;;;;5044114;28;20025;-47
2023/05/25 08:45:09;;;;;;;11.35;3.40;;;17.10;99.90;;;;;;5039132;28;20043;-47
2023/05/25 08:47:42;;;;;;;12.38;4.25;;;17.30;99.70;;;;;;5044055;28;20028;-45
2023/05/25 08:50:09;;;;;;;13.02;3.72;;;17.30;98.00;;;;;;5042862;28;20032;-48
2023/05/25 08:52:37;;;;;;;13.05;3.50;;;17.30;97.40;;;;;;5043917;28;20078;-47
2023/05/25 08:55:08;;;;;;;17.27;4.75;;;17.30;97.60;;;;;;5039508;28;20021;-48
2023/05/25 08:57:39;;;;;;;13.90;4.40;;;17.40;97.50;;;;;;5044200;28;20127;-47
2023/05/25 09:00:09;;;;;;;15.13;4.22;;;16.80;98.70;;;;;;5043333;28;20040;-50
2023/05/25 09:03:00;;;;;;;15.30;4.15;;;16.90;99.60;;;;;;5037809;28;20166;-50
2023/05/25 09:05:25;;;;;;;15.25;4.10;;;17.10;99.30;;;;;;5039966;28;20064;-49
2023/05/25 09:07:53;;;;;;;12.82;3.78;;;17.20;99.10;;;;;;5023833;28;20068;-49
2023/05/25 09:10:19;;;;;;;11.52;4.13;;;17.40;98.40;;;;;;5043534;28;20060;-48
2023/05/25 09:12:46;;;;;;;18.58;5.35;;;17.40;96.70;;;;;;5026426;28;20596;-48
2023/05/25 09:15:12;;;;;;;9.70;3.70;;;17.40;98.20;;;;;;5042525;28;20613;-50
2023/05/25 09:17:39;;;;;;;14.63;4.90;;;17.20;96.00;;;;;;5034564;28;20097;-48
2023/05/25 09:20:12;;;;;;;11.90;4.13;;;16.80;96.80;;;;;;5042517;28;20017;-46
2023/05/25 09:22:39;;;;;;;9.48;3.88;;;17.00;99.20;;;;;;5025467;28;20052;-47
2023/05/25 09:25:09;;;;;;;17.65;4.05;;;17.30;99.90;;;;;;5043723;28;20025;-48
2023/05/25 09:27:38;;;;;;;15.48;4.53;;;17.60;99.30;;;;;;5047628;28;20045;-47
2023/05/25 09:30:05;;;;;;;13.48;4.28;;;17.60;97.80;;;;;;5031975;28;20075;-47
2023/05/25 09:32:31;;;;;;;13.15;4.28;;;17.40;96.70;;;;;;5031885;28;20017;-50
2023/05/25 09:35:10;;;;;;;11.70;4.38;;;17.30;97.80;;;;;;5047825;28;20024;-50
2023/05/25 09:37:36;;;;;;;14.65;4.10;;;17.50;97.90;;;;;;5047368;28;20180;-49
2023/05/25 09:40:07;;;;;;;14.45;4.68;;;17.60;96.40;;;;;;5044384;28;20095;-47
2023/05/25 09:42:33;;;;;;;12.20;4.28;;;17.60;95.60;;;;;;5047998;28;20052;-49
2023/05/25 09:44:59;;;;;;;16.42;4.93;;;17.40;96.70;;;;;;5026941;28;20017;-48
2023/05/25 09:47:26;;;;;;;19.27;4.40;;;17.30;97.00;;;;;;5046634;28;20029;-46
2023/05/25 09:49:52;;;;;;;15.20;4.90;;;17.50;99.00;;;;;;5046278;28;20039;-52
2023/05/25 09:52:18;;;;;;;11.25;3.72;;;17.50;96.50;;;;;;5047700;28;20047;-50
2023/05/25 09:54:48;;;;;;;15.65;4.03;;;17.50;98.60;;;;;;5047049;28;20508;-48
2023/05/25 09:57:15;;;;;;;13.70;4.47;;;17.50;98.00;;;;;;5029072;28;20021;-47
2023/05/25 09:59:41;;;;;;;15.23;4.80;;;17.50;97.80;;;;;;5047376;28;20049;-47
2023/05/25 10:02:10;;;;;;;16.67;4.10;;;17.60;98.40;;;;;;5044571;28;20040;-50
2023/05/25 10:04:36;;;;;;;14.93;4.85;;;17.70;96.00;;;;;;5046207;28;20094;-50
2023/05/25 10:07:03;;;;;;;12.07;3.70;;;17.50;97.50;;;;;;5045685;28;20025;-48
2023/05/25 10:09:29;;;;;;;12.75;3.88;;;17.60;97.80;;;;;;5047532;28;20039;-47
2023/05/25 10:12:00;;;;;;;15.55;4.28;;;17.40;96.10;;;;;;5047206;28;20382;-46
2023/05/25 10:14:27;;;;;;;15.45;4.07;;;17.20;97.10;;;;;;5028244;28;20025;-49
2023/05/25 10:16:54;;;;;;;13.10;4.40;;;17.30;96.90;;;;;;5044993;28;20029;-47
2023/05/25 10:19:26;;;;;;;15.57;4.65;;;17.40;97.60;;;;;;5041024;28;20035;-50
2023/05/25 10:22:02;;;;;;;18.05;4.25;;;17.50;96.20;;;;;;5046439;28;20037;-47
2023/05/25 10:24:37;;;;;;;15.65;4.60;;;17.60;98.50;;;;;;5045464;28;20021;-48
2023/05/25 10:27:05;;;;;;;11.40;3.53;;;17.60;97.10;;;;;;5031662;28;20067;-48
2023/05/25 10:29:32;;;;;;;9.98;3.85;;;17.30;96.40;;;;;;5011721;28;20021;-49
2023/05/25 10:31:59;;;;;;;17.75;4.70;;;17.20;94.80;;;;;;5046621;28;20055;-47
2023/05/25 10:34:26;;;;;;;14.65;3.92;;;17.30;95.10;;;;;;5028512;28;20029;-48
2023/05/25 10:36:53;;;;;;;15.15;5.35;;;17.40;95.90;;;;;;5028735;28;20064;-50
2023/05/25 10:39:19;;;;;;;16.50;4.18;;;17.30;95.20;;;;;;5046574;28;20574;-49
2023/05/25 10:41:47;;;;;;;15.43;4.65;;;17.30;95.90;;;;;;5046885;28;20504;-48
2023/05/25 10:44:13;;;;;;;15.77;4.45;;;17.40;96.30;;;;;;5054108;23;20041;-81
2023/05/25 10:46:40;;;;;;;15.45;4.40;;;17.50;96.70;;;;;;5034066;28;20013;-79
2023/05/25 10:49:05;;;;;;;18.52;4.90;;;17.50;97.80;;;;;;5051965;28;20116;-79
2023/05/25 10:51:40;;;;;;;16.20;5.05;;;17.70;96.80;;;;;;5050882;28;20573;-79
2023/05/25 10:54:06;;;;;;;15.67;4.63;;;17.60;95.80;;;;;;5029981;28;20652;-81
2023/05/25 10:56:32;;;;;;;17.20;5.45;;;17.40;94.10;;;;;;5031994;28;20025;-80
2023/05/25 10:58:58;;;;;;;16.20;5.30;;;17.40;95.30;;;;;;5032960;28;20017;-80
2023/05/25 11:01:24;;;;;;;14.73;5.25;;;17.50;95.60;;;;;;5033926;28;20056;-80
2023/05/25 11:04:12;;;;;;;16.05;4.72;;;17.60;96.00;;;;;;5033002;28;20031;-81
2023/05/25 11:06:42;;;;;;;15.27;4.60;;;17.70;96.30;;;;;;5033220;28;20507;-80
2023/05/25 11:09:25;;;;;;;12.80;4.03;;;17.70;96.30;;;;;;5035620;28;20013;-81
2023/05/25 11:11:51;;;;;;;14.45;3.83;;;17.60;94.80;;;;;;5032593;28;20021;-81
2023/05/25 11:14:21;;;;;;;12.48;3.38;;;17.70;94.80;;;;;;5033840;28;21013;-79
2023/05/25 11:17:13;;;;;;;11.50;3.30;;;17.80;95.40;;;;;;5049189;28;20017;-80
2023/05/25 11:19:51;;;;;;;11.98;4.10;;;17.80;94.20;;;;;;5031892;28;20082;-80
2023/05/25 11:22:20;;;;;;;14.48;4.75;;;17.80;94.90;;;;;;5030806;28;20025;-81
2023/05/25 11:24:50;;;;;;;13.38;4.05;;;18.00;96.10;;;;;;5032809;28;20033;-81
2023/05/25 11:27:23;;;;;;;14.25;3.83;;;18.00;95.10;;;;;;5030141;28;20029;-80
2023/05/25 11:29:53;;;;;;;12.52;4.03;;;17.90;95.00;;;;;;5028202;28;20388;-79
2023/05/25 11:32:22;;;;;;;15.23;4.70;;;17.80;93.40;;;;;;5029987;28;20029;-80
2023/05/25 11:34:50;;;;;;;14.18;4.45;;;17.80;94.90;;;;;;5044940;28;20033;-80
2023/05/25 11:37:21;;;;;;;13.80;3.97;;;17.80;95.10;;;;;;5033231;28;20801;-79
2023/05/25 11:39:48;;;;;;;13.82;4.35;;;17.90;95.20;;;;;;5033181;28;20021;-79
2023/05/25 11:42:14;;;;;;;17.48;5.00;;;18.00;94.50;;;;;;5027135;28;20071;-82
2023/05/25 11:44:40;;;;;;;11.02;4.15;;;18.10;95.00;;;;;;5027817;28;20664;-80
2023/05/25 11:47:07;;;;;;;17.50;5.15;;;18.20;94.40;;;;;;5047652;28;20074;-78
2023/05/25 11:49:45;;;;;;;16.00;4.63;;;18.20;94.90;;;;;;5042849;28;20056;-80
2023/05/25 11:52:13;;;;;;;15.05;4.32;;;18.30;93.80;;;;;;5049342;28;20017;-79
2023/05/25 11:54:42;;;;;;;19.13;5.72;;;18.20;93.90;;;;;;5045200;28;20028;-79
2023/05/25 11:57:23;;;;;;;14.68;4.53;;;18.20;94.10;;;;;;5046904;28;20029;-79
2023/05/25 12:00:05;;;;;;;11.75;4.43;;;18.20;94.60;;;;;;5030852;28;20032;-78
2023/05/25 12:02:37;;;;;;;11.07;4.32;;;18.10;94.10;;;;;;5028348;28;20036;-80
2023/05/25 12:05:03;;;;;;;14.90;4.50;;;17.90;93.20;;;;;;5027086;28;20029;-80
2023/05/25 12:07:30;;;;;;;10.00;4.00;;;17.90;93.80;;;;;;5030127;28;20029;-81
2023/05/25 12:10:14;;;;;;;11.25;3.55;;;18.00;93.10;;;;;;5029842;28;20025;-80
2023/05/25 12:12:43;;;;;;;9.93;3.70;;;18.10;93.60;;;;;;5026380;28;20091;-81
2023/05/25 12:15:11;;;;;;;16.25;4.55;;;18.30;92.40;;;;;;5047427;28;20055;-80
2023/05/25 12:17:41;;;;;;;13.70;4.50;;;18.40;91.80;;;;;;5045399;28;20021;-80
2023/05/25 12:20:09;;;;;;;18.23;4.65;;;18.30;91.10;;;;;;5042363;28;20021;-79
2023/05/25 12:22:35;;;;;;;15.88;4.10;;;18.20;92.30;;;;;;5029352;28;20025;-81
2023/05/25 12:25:03;;;;;;;14.23;4.00;;;18.20;93.10;;;;;;5032163;28;20508;-80
2023/05/25 12:27:29;;;;;;;12.18;3.78;;;18.40;93.40;;;;;;5031205;28;20031;-82
2023/05/25 12:29:58;;;;;;;18.20;5.00;;;18.50;94.30;;;;;;5047808;28;20021;-81
2023/05/25 12:32:23;;;;;;;11.20;4.53;;;18.70;93.30;;;;;;5026112;28;20041;-80
2023/05/25 12:34:49;;;;;;;14.18;5.20;;;18.80;93.40;;;;;;5032595;28;20378;-79
2023/05/25 12:37:20;;;;;;;15.30;4.65;;;18.80;92.80;;;;;;5044889;28;20025;-81
2023/05/25 12:39:46;;;;;;;11.57;4.25;;;18.80;93.70;;;;;;5047336;28;20069;-81
2023/05/25 12:42:15;;;;;;;12.63;4.65;;;18.90;94.30;;;;;;5026481;28;20131;-81